sensor_id;sensor_type;location;lat;lon;timestamp;temperature;humidity
52743;DHT22;55583;53.012;6.556;2023-05-07T00:02:06;13.20;99.90
52743;DHT22;55583;53.012;6.556;2023-05-07T00:04:33;13.20;99.90
52743;DHT22;55583;53.012;6.556;2023-05-07T00:07:03;13.20;99.90
52743;DHT22;55583;53.012;6.556;2023-05-07T00:09:29;13.20;99.90
52743;DHT22;55583;53.012;6.556;2023-05-07T00:11:54;13.20;99.90
52743;DHT22;55583;53.012;6.556;2023-05-07T00:14:20;13.10;99.90
52743;DHT22;55583;53.012;6.556;2023-05-07T00:16:46;13.20;99.90
52743;DHT22;55583;53.012;6.556;2023-05-07T00:19:12;13.10;99.90
52743;DHT22;55583;53.012;6.556;2023-05-07T00:21:37;13.10;99.90
52743;DHT22;55583;53.012;6.556;2023-05-07T00:24:03;13.10;99.90
52743;DHT22;55583;53.012;6.556;2023-05-07T00:26:29;13.10;99.90
52743;DHT22;55583;53.012;6.556;2023-05-07T00:28:55;13.10;99.90
52743;DHT22;55583;53.012;6.556;2023-05-07T00:31:21;13.10;99.90
52743;DHT22;55583;53.012;6.556;2023-05-07T00:33:46;13.10;99.90
52743;DHT22;55583;53.012;6.556;2023-05-07T00:36:12;13.00;99.90
52743;DHT22;55583;53.012;6.556;2023-05-07T00:38:37;13.00;99.90
52743;DHT22;55583;53.012;6.556;2023-05-07T00:41:03;13.20;99.90
52743;DHT22;55583;53.012;6.556;2023-05-07T00:43:29;13.00;99.90
52743;DHT22;55583;53.012;6.556;2023-05-07T00:45:55;13.00;99.90
52743;DHT22;55583;53.012;6.556;2023-05-07T00:48:21;13.00;99.90
52743;DHT22;55583;53.012;6.556;2023-05-07T00:50:47;12.80;99.90
52743;DHT22;55583;53.012;6.556;2023-05-07T00:53:14;12.90;99.90
52743;DHT22;55583;53.012;6.556;2023-05-07T00:55:39;12.90;99.90
52743;DHT22;55583;53.012;6.556;2023-05-07T00:58:06;12.90;99.90
52743;DHT22;55583;53.012;6.556;2023-05-07T01:00:31;12.80;99.90
52743;DHT22;55583;53.012;6.556;2023-05-07T01:02:58;12.80;99.90
52743;DHT22;55583;53.012;6.556;2023-05-07T01:05:24;12.80;99.90
52743;DHT22;55583;53.012;6.556;2023-05-07T01:07:53;12.70;99.90
52743;DHT22;55583;53.012;6.556;2023-05-07T01:10:20;13.00;99.90
52743;DHT22;55583;53.012;6.556;2023-05-07T01:12:46;12.70;99.90
52743;DHT22;55583;53.012;6.556;2023-05-07T01:15:14;12.70;99.90
52743;DHT22;55583;53.012;6.556;2023-05-07T01:17:41;12.60;99.90
52743;DHT22;55583;53.012;6.556;2023-05-07T01:20:07;12.60;99.90
52743;DHT22;55583;53.012;6.556;2023-05-07T01:22:40;12.60;99.90
52743;DHT22;55583;53.012;6.556;2023-05-07T01:25:07;12.60;99.90
52743;DHT22;55583;53.012;6.556;2023-05-07T01:27:34;12.60;99.90
52743;DHT22;55583;53.012;6.556;2023-05-07T01:30:00;12.60;99.90
52743;DHT22;55583;53.012;6.556;2023-05-07T01:33:14;12.60;99.90
52743;DHT22;55583;53.012;6.556;2023-05-07T01:35:24;12.50;99.90
52743;DHT22;55583;53.012;6.556;2023-05-07T01:37:50;12.50;99.90
52743;DHT22;55583;53.012;6.556;2023-05-07T01:40:16;12.50;99.90
52743;DHT22;55583;53.012;6.556;2023-05-07T01:42:43;12.40;99.90
52743;DHT22;55583;53.012;6.556;2023-05-07T01:45:09;12.40;99.90
52743;DHT22;55583;53.012;6.556;2023-05-07T01:47:36;12.40;99.90
52743;DHT22;55583;53.012;6.556;2023-05-07T01:50:04;12.30;99.90
52743;DHT22;55583;53.012;6.556;2023-05-07T01:52:31;12.30;99.90
52743;DHT22;55583;53.012;6.556;2023-05-07T01:54:56;12.30;99.90
52743;DHT22;55583;53.012;6.556;2023-05-07T01:57:22;12.20;99.90
52743;DHT22;55583;53.012;6.556;2023-05-07T01:59:48;12.30;99.90
52743;DHT22;55583;53.012;6.556;2023-05-07T02:02:13;12.40;99.90
52743;DHT22;55583;53.012;6.556;2023-05-07T02:04:39;12.30;99.90
52743;DHT22;55583;53.012;6.556;2023-05-07T02:07:04;12.20;99.90
52743;DHT22;55583;53.012;6.556;2023-05-07T02:09:30;12.10;99.90
52743;DHT22;55583;53.012;6.556;2023-05-07T02:11:56;12.10;99.90
52743;DHT22;55583;53.012;6.556;2023-05-07T02:14:21;12.20;99.90
52743;DHT22;55583;53.012;6.556;2023-05-07T02:16:47;12.00;99.90
52743;DHT22;55583;53.012;6.556;2023-05-07T02:19:13;12.00;99.90
52743;DHT22;55583;53.012;6.556;2023-05-07T02:21:38;12.00;99.90
52743;DHT22;55583;53.012;6.556;2023-05-07T02:24:04;12.00;99.90
52743;DHT22;55583;53.012;6.556;2023-05-07T02:26:30;12.00;99.90
52743;DHT22;55583;53.012;6.556;2023-05-07T02:28:55;12.00;99.90
52743;DHT22;55583;53.012;6.556;2023-05-07T02:31:21;12.00;99.90
52743;DHT22;55583;53.012;6.556;2023-05-07T02:33:46;11.90;99.90
52743;DHT22;55583;53.012;6.556;2023-05-07T02:36:12;11.90;99.90
52743;DHT22;55583;53.012;6.556;2023-05-07T02:38:38;11.90;99.90
52743;DHT22;55583;53.012;6.556;2023-05-07T02:41:04;11.90;99.90
52743;DHT22;55583;53.012;6.556;2023-05-07T02:43:30;11.80;99.90
52743;DHT22;55583;53.012;6.556;2023-05-07T02:46:06;11.90;99.90
52743;DHT22;55583;53.012;6.556;2023-05-07T02:48:32;11.80;99.90
52743;DHT22;55583;53.012;6.556;2023-05-07T02:50:59;11.80;99.90
52743;DHT22;55583;53.012;6.556;2023-05-07T02:53:25;11.70;99.90
52743;DHT22;55583;53.012;6.556;2023-05-07T02:55:56;11.70;99.90
52743;DHT22;55583;53.012;6.556;2023-05-07T02:58:22;11.70;99.90
52743;DHT22;55583;53.012;6.556;2023-05-07T03:00:48;11.80;99.90
52743;DHT22;55583;53.012;6.556;2023-05-07T03:03:14;11.70;99.90
52743;DHT22;55583;53.012;6.556;2023-05-07T03:05:40;11.70;99.90
52743;DHT22;55583;53.012;6.556;2023-05-07T03:08:06;11.70;99.90
52743;DHT22;55583;53.012;6.556;2023-05-07T03:10:32;11.60;99.90
52743;DHT22;55583;53.012;6.556;2023-05-07T03:12:58;11.60;99.90
52743;DHT22;55583;53.012;6.556;2023-05-07T03:15:23;11.60;99.90
52743;DHT22;55583;53.012;6.556;2023-05-07T03:17:49;11.60;99.90
52743;DHT22;55583;53.012;6.556;2023-05-07T03:20:15;11.50;99.90
52743;DHT22;55583;53.012;6.556;2023-05-07T03:22:40;11.60;99.90
52743;DHT22;55583;53.012;6.556;2023-05-07T03:25:06;11.50;99.90
52743;DHT22;55583;53.012;6.556;2023-05-07T03:27:32;11.50;99.90
52743;DHT22;55583;53.012;6.556;2023-05-07T03:29:58;11.50;99.90
52743;DHT22;55583;53.012;6.556;2023-05-07T03:32:24;11.50;99.90
52743;DHT22;55583;53.012;6.556;2023-05-07T03:34:50;11.50;99.90
52743;DHT22;55583;53.012;6.556;2023-05-07T03:37:15;11.40;99.90
52743;DHT22;55583;53.012;6.556;2023-05-07T03:39:41;11.40;99.90
52743;DHT22;55583;53.012;6.556;2023-05-07T03:42:07;11.40;99.90
52743;DHT22;55583;53.012;6.556;2023-05-07T03:44:32;11.40;99.90
52743;DHT22;55583;53.012;6.556;2023-05-07T03:46:58;11.50;99.90
52743;DHT22;55583;53.012;6.556;2023-05-07T03:49:23;11.60;99.90
52743;DHT22;55583;53.012;6.556;2023-05-07T03:51:49;11.50;99.90
52743;DHT22;55583;53.012;6.556;2023-05-07T03:54:15;11.40;99.90
52743;DHT22;55583;53.012;6.556;2023-05-07T03:56:40;11.60;99.90
52743;DHT22;55583;53.012;6.556;2023-05-07T03:59:06;11.40;99.90
52743;DHT22;55583;53.012;6.556;2023-05-07T04:01:31;11.40;99.90
52743;DHT22;55583;53.012;6.556;2023-05-07T04:03:57;11.40;99.90
52743;DHT22;55583;53.012;6.556;2023-05-07T04:06:23;11.40;99.90
52743;DHT22;55583;53.012;6.556;2023-05-07T04:08:48;11.40;99.90
52743;DHT22;55583;53.012;6.556;2023-05-07T04:11:14;11.40;99.90
52743;DHT22;55583;53.012;6.556;2023-05-07T04:13:40;11.40;99.90
52743;DHT22;55583;53.012;6.556;2023-05-07T04:16:06;11.40;99.90
52743;DHT22;55583;53.012;6.556;2023-05-07T04:18:31;11.40;99.90
52743;DHT22;55583;53.012;6.556;2023-05-07T04:20:57;11.40;99.90
52743;DHT22;55583;53.012;6.556;2023-05-07T04:23:23;11.40;99.90
52743;DHT22;55583;53.012;6.556;2023-05-07T04:25:48;11.40;99.90
52743;DHT22;55583;53.012;6.556;2023-05-07T04:28:14;11.40;99.90
52743;DHT22;55583;53.012;6.556;2023-05-07T04:30:39;11.40;99.90
52743;DHT22;55583;53.012;6.556;2023-05-07T04:33:06;11.40;99.90
52743;DHT22;55583;53.012;6.556;2023-05-07T04:35:32;11.30;99.90
52743;DHT22;55583;53.012;6.556;2023-05-07T04:37:58;11.30;99.90
52743;DHT22;55583;53.012;6.556;2023-05-07T04:40:24;11.30;99.90
52743;DHT22;55583;53.012;6.556;2023-05-07T04:42:49;11.60;99.90
52743;DHT22;55583;53.012;6.556;2023-05-07T04:45:15;11.30;99.90
52743;DHT22;55583;53.012;6.556;2023-05-07T04:47:41;11.40;99.90
52743;DHT22;55583;53.012;6.556;2023-05-07T04:50:07;11.30;99.90
52743;DHT22;55583;53.012;6.556;2023-05-07T04:52:33;11.30;99.90
52743;DHT22;55583;53.012;6.556;2023-05-07T04:55:00;11.30;99.90
52743;DHT22;55583;53.012;6.556;2023-05-07T04:57:26;11.60;99.90
52743;DHT22;55583;53.012;6.556;2023-05-07T04:59:53;11.30;99.90
52743;DHT22;55583;53.012;6.556;2023-05-07T05:02:19;11.30;99.90
52743;DHT22;55583;53.012;6.556;2023-05-07T05:04:45;11.30;99.90
52743;DHT22;55583;53.012;6.556;2023-05-07T05:07:10;11.40;99.90
52743;DHT22;55583;53.012;6.556;2023-05-07T05:09:36;11.40;99.90
52743;DHT22;55583;53.012;6.556;2023-05-07T05:12:02;11.40;99.90
52743;DHT22;55583;53.012;6.556;2023-05-07T05:14:28;11.40;99.90
52743;DHT22;55583;53.012;6.556;2023-05-07T05:16:53;11.40;99.90
52743;DHT22;55583;53.012;6.556;2023-05-07T05:19:19;11.40;99.90
52743;DHT22;55583;53.012;6.556;2023-05-07T05:21:45;11.50;99.90
52743;DHT22;55583;53.012;6.556;2023-05-07T05:24:13;11.50;99.90
52743;DHT22;55583;53.012;6.556;2023-05-07T05:26:38;11.40;99.90
52743;DHT22;55583;53.012;6.556;2023-05-07T05:29:04;11.50;99.90
52743;DHT22;55583;53.012;6.556;2023-05-07T05:31:30;11.50;99.90
52743;DHT22;55583;53.012;6.556;2023-05-07T05:33:55;11.50;99.90
52743;DHT22;55583;53.012;6.556;2023-05-07T05:36:21;11.50;99.90
52743;DHT22;55583;53.012;6.556;2023-05-07T05:38:47;11.50;99.90
52743;DHT22;55583;53.012;6.556;2023-05-07T05:41:13;11.50;99.90
52743;DHT22;55583;53.012;6.556;2023-05-07T05:43:38;11.50;99.90
52743;DHT22;55583;53.012;6.556;2023-05-07T05:46:04;11.50;99.90
52743;DHT22;55583;53.012;6.556;2023-05-07T05:48:30;11.50;99.90
52743;DHT22;55583;53.012;6.556;2023-05-07T05:50:55;11.50;99.90
52743;DHT22;55583;53.012;6.556;2023-05-07T05:53:21;11.70;99.90
52743;DHT22;55583;53.012;6.556;2023-05-07T05:55:47;11.60;99.90
52743;DHT22;55583;53.012;6.556;2023-05-07T05:58:13;11.60;99.90
52743;DHT22;55583;53.012;6.556;2023-05-07T06:00:40;12.00;99.90
52743;DHT22;55583;53.012;6.556;2023-05-07T06:03:06;11.60;99.90
52743;DHT22;55583;53.012;6.556;2023-05-07T06:05:31;11.70;99.90
52743;DHT22;55583;53.012;6.556;2023-05-07T06:07:57;11.70;99.90
52743;DHT22;55583;53.012;6.556;2023-05-07T06:10:23;11.90;99.90
52743;DHT22;55583;53.012;6.556;2023-05-07T06:12:49;11.80;99.90
52743;DHT22;55583;53.012;6.556;2023-05-07T06:15:15;11.80;99.90
52743;DHT22;55583;53.012;6.556;2023-05-07T06:17:40;11.90;99.90
52743;DHT22;55583;53.012;6.556;2023-05-07T06:20:06;11.90;99.90
52743;DHT22;55583;53.012;6.556;2023-05-07T06:22:32;11.90;99.90
52743;DHT22;55583;53.012;6.556;2023-05-07T06:24:58;11.90;99.90
52743;DHT22;55583;53.012;6.556;2023-05-07T06:27:23;11.90;99.90
52743;DHT22;55583;53.012;6.556;2023-05-07T06:29:49;11.90;99.90
52743;DHT22;55583;53.012;6.556;2023-05-07T06:32:15;12.00;99.90
52743;DHT22;55583;53.012;6.556;2023-05-07T06:34:41;12.00;99.90
52743;DHT22;55583;53.012;6.556;2023-05-07T06:37:07;12.10;99.90
52743;DHT22;55583;53.012;6.556;2023-05-07T06:39:33;12.10;99.90
52743;DHT22;55583;53.012;6.556;2023-05-07T06:42:00;12.10;99.90
52743;DHT22;55583;53.012;6.556;2023-05-07T06:44:27;12.20;99.90
52743;DHT22;55583;53.012;6.556;2023-05-07T06:46:52;12.10;99.90
52743;DHT22;55583;53.012;6.556;2023-05-07T06:49:18;12.20;99.90
52743;DHT22;55583;53.012;6.556;2023-05-07T06:51:43;12.20;99.90
52743;DHT22;55583;53.012;6.556;2023-05-07T06:54:09;12.30;99.90
52743;DHT22;55583;53.012;6.556;2023-05-07T06:56:35;12.30;99.90
52743;DHT22;55583;53.012;6.556;2023-05-07T06:59:02;12.30;99.90
52743;DHT22;55583;53.012;6.556;2023-05-07T07:01:28;12.30;99.90
52743;DHT22;55583;53.012;6.556;2023-05-07T07:03:53;12.40;99.90
52743;DHT22;55583;53.012;6.556;2023-05-07T07:06:19;12.40;99.90
52743;DHT22;55583;53.012;6.556;2023-05-07T07:08:45;12.50;99.90
52743;DHT22;55583;53.012;6.556;2023-05-07T07:11:11;12.50;99.90
52743;DHT22;55583;53.012;6.556;2023-05-07T07:13:37;12.60;99.90
52743;DHT22;55583;53.012;6.556;2023-05-07T07:16:03;12.70;99.90
52743;DHT22;55583;53.012;6.556;2023-05-07T07:18:29;12.70;99.90
52743;DHT22;55583;53.012;6.556;2023-05-07T07:20:54;13.00;99.90
52743;DHT22;55583;53.012;6.556;2023-05-07T07:23:20;12.80;99.90
52743;DHT22;55583;53.012;6.556;2023-05-07T07:25:46;12.80;99.90
52743;DHT22;55583;53.012;6.556;2023-05-07T07:28:11;12.80;99.90
52743;DHT22;55583;53.012;6.556;2023-05-07T07:30:41;12.90;99.90
52743;DHT22;55583;53.012;6.556;2023-05-07T07:33:06;12.90;99.90
52743;DHT22;55583;53.012;6.556;2023-05-07T07:35:32;12.90;99.90
52743;DHT22;55583;53.012;6.556;2023-05-07T07:37:58;12.90;99.90
52743;DHT22;55583;53.012;6.556;2023-05-07T07:40:24;13.00;99.90
52743;DHT22;55583;53.012;6.556;2023-05-07T07:42:50;13.40;99.90
52743;DHT22;55583;53.012;6.556;2023-05-07T07:45:16;13.20;99.90
52743;DHT22;55583;53.012;6.556;2023-05-07T07:47:42;13.30;99.90
52743;DHT22;55583;53.012;6.556;2023-05-07T07:50:08;13.30;99.90
52743;DHT22;55583;53.012;6.556;2023-05-07T07:52:34;13.40;99.90
52743;DHT22;55583;53.012;6.556;2023-05-07T07:54:59;13.40;99.90
52743;DHT22;55583;53.012;6.556;2023-05-07T07:57:25;13.50;99.90
52743;DHT22;55583;53.012;6.556;2023-05-07T07:59:51;13.50;99.90
52743;DHT22;55583;53.012;6.556;2023-05-07T08:02:17;13.90;99.90
52743;DHT22;55583;53.012;6.556;2023-05-07T08:04:43;13.60;99.90
52743;DHT22;55583;53.012;6.556;2023-05-07T08:07:09;13.80;99.90
52743;DHT22;55583;53.012;6.556;2023-05-07T08:09:36;13.90;99.90
52743;DHT22;55583;53.012;6.556;2023-05-07T08:12:02;13.90;99.90
52743;DHT22;55583;53.012;6.556;2023-05-07T08:14:27;14.00;99.90
52743;DHT22;55583;53.012;6.556;2023-05-07T08:16:54;14.10;99.90
52743;DHT22;55583;53.012;6.556;2023-05-07T08:19:20;14.20;99.90
52743;DHT22;55583;53.012;6.556;2023-05-07T08:21:47;14.30;99.90
52743;DHT22;55583;53.012;6.556;2023-05-07T08:24:16;14.50;99.90
52743;DHT22;55583;53.012;6.556;2023-05-07T08:26:42;14.60;99.90
52743;DHT22;55583;53.012;6.556;2023-05-07T08:29:08;14.80;99.90
52743;DHT22;55583;53.012;6.556;2023-05-07T08:31:34;15.00;99.90
52743;DHT22;55583;53.012;6.556;2023-05-07T08:34:00;15.10;99.90
52743;DHT22;55583;53.012;6.556;2023-05-07T08:36:25;15.20;99.90
52743;DHT22;55583;53.012;6.556;2023-05-07T08:38:52;15.20;99.90
52743;DHT22;55583;53.012;6.556;2023-05-07T08:41:18;15.30;99.90
52743;DHT22;55583;53.012;6.556;2023-05-07T08:43:48;15.40;99.90
52743;DHT22;55583;53.012;6.556;2023-05-07T08:46:17;15.60;99.90
52743;DHT22;55583;53.012;6.556;2023-05-07T08:48:44;15.70;99.90
52743;DHT22;55583;53.012;6.556;2023-05-07T08:51:15;15.70;99.90
52743;DHT22;55583;53.012;6.556;2023-05-07T08:53:41;15.70;99.90
52743;DHT22;55583;53.012;6.556;2023-05-07T08:56:08;15.50;99.90
52743;DHT22;55583;53.012;6.556;2023-05-07T08:58:34;15.50;99.90
52743;DHT22;55583;53.012;6.556;2023-05-07T09:01:05;15.70;99.90
52743;DHT22;55583;53.012;6.556;2023-05-07T09:03:32;15.70;99.90
52743;DHT22;55583;53.012;6.556;2023-05-07T09:05:58;16.00;99.90
52743;DHT22;55583;53.012;6.556;2023-05-07T09:08:27;16.50;99.90
52743;DHT22;55583;53.012;6.556;2023-05-07T09:10:53;16.90;99.90
52743;DHT22;55583;53.012;6.556;2023-05-07T09:13:20;17.20;99.90
52743;DHT22;55583;53.012;6.556;2023-05-07T09:15:45;17.40;99.90
52743;DHT22;55583;53.012;6.556;2023-05-07T09:18:12;17.50;99.90
52743;DHT22;55583;53.012;6.556;2023-05-07T09:20:38;17.70;99.90
52743;DHT22;55583;53.012;6.556;2023-05-07T09:23:05;17.90;99.90
52743;DHT22;55583;53.012;6.556;2023-05-07T09:25:33;18.50;99.90
52743;DHT22;55583;53.012;6.556;2023-05-07T09:28:00;19.00;99.90
52743;DHT22;55583;53.012;6.556;2023-05-07T09:30:33;19.60;99.90
52743;DHT22;55583;53.012;6.556;2023-05-07T09:33:00;20.00;98.30
52743;DHT22;55583;53.012;6.556;2023-05-07T09:35:27;20.80;98.60
52743;DHT22;55583;53.012;6.556;2023-05-07T09:37:53;21.90;93.90
52743;DHT22;55583;53.012;6.556;2023-05-07T09:40:28;22.40;87.10
52743;DHT22;55583;53.012;6.556;2023-05-07T09:42:54;22.90;74.80
52743;DHT22;55583;53.012;6.556;2023-05-07T09:45:27;23.40;76.60
52743;DHT22;55583;53.012;6.556;2023-05-07T09:47:57;23.30;71.50
52743;DHT22;55583;53.012;6.556;2023-05-07T09:50:30;23.20;73.50
52743;DHT22;55583;53.012;6.556;2023-05-07T09:52:58;22.80;70.40
52743;DHT22;55583;53.012;6.556;2023-05-07T09:55:24;22.20;77.00
52743;DHT22;55583;53.012;6.556;2023-05-07T09:57:51;21.70;79.60
52743;DHT22;55583;53.012;6.556;2023-05-07T10:00:19;21.20;82.00
52743;DHT22;55583;53.012;6.556;2023-05-07T10:02:50;20.80;86.20
52743;DHT22;55583;53.012;6.556;2023-05-07T10:05:18;20.40;89.60
52743;DHT22;55583;53.012;6.556;2023-05-07T10:07:44;20.20;92.10
52743;DHT22;55583;53.012;6.556;2023-05-07T10:10:10;20.30;92.30
52743;DHT22;55583;53.012;6.556;2023-05-07T10:12:36;20.50;91.60
52743;DHT22;55583;53.012;6.556;2023-05-07T10:15:08;21.40;90.30
52743;DHT22;55583;53.012;6.556;2023-05-07T10:17:37;22.50;75.20
52743;DHT22;55583;53.012;6.556;2023-05-07T10:20:03;23.30;75.00
52743;DHT22;55583;53.012;6.556;2023-05-07T10:22:37;24.10;70.90
52743;DHT22;55583;53.012;6.556;2023-05-07T10:25:06;25.20;65.00
52743;DHT22;55583;53.012;6.556;2023-05-07T10:27:35;25.30;62.50
52743;DHT22;55583;53.012;6.556;2023-05-07T10:30:12;25.70;62.60
52743;DHT22;55583;53.012;6.556;2023-05-07T10:32:43;26.30;61.40
52743;DHT22;55583;53.012;6.556;2023-05-07T10:35:16;26.70;58.70
52743;DHT22;55583;53.012;6.556;2023-05-07T10:37:44;26.70;59.20
52743;DHT22;55583;53.012;6.556;2023-05-07T10:40:10;27.00;58.30
52743;DHT22;55583;53.012;6.556;2023-05-07T10:42:36;27.30;58.50
52743;DHT22;55583;53.012;6.556;2023-05-07T10:45:14;27.70;56.90
52743;DHT22;55583;53.012;6.556;2023-05-07T10:48:14;27.80;52.40
52743;DHT22;55583;53.012;6.556;2023-05-07T10:50:41;27.90;56.30
52743;DHT22;55583;53.012;6.556;2023-05-07T10:55:42;28.50;51.20
52743;DHT22;55583;53.012;6.556;2023-05-07T10:58:28;28.50;53.60
52743;DHT22;55583;53.012;6.556;2023-05-07T11:00:58;29.00;54.10
52743;DHT22;55583;53.012;6.556;2023-05-07T11:03:25;29.10;53.10
52743;DHT22;55583;53.012;6.556;2023-05-07T11:06:15;28.70;53.00
52743;DHT22;55583;53.012;6.556;2023-05-07T11:11:20;27.70;51.60
52743;DHT22;55583;53.012;6.556;2023-05-07T11:14:05;27.60;53.70
52743;DHT22;55583;53.012;6.556;2023-05-07T11:16:30;27.90;54.20
52743;DHT22;55583;53.012;6.556;2023-05-07T11:18:58;28.40;53.60
52743;DHT22;55583;53.012;6.556;2023-05-07T11:21:50;28.20;52.80
52743;DHT22;55583;53.012;6.556;2023-05-07T11:24:16;27.60;52.20
52743;DHT22;55583;53.012;6.556;2023-05-07T11:26:51;27.20;54.60
52743;DHT22;55583;53.012;6.556;2023-05-07T11:29:19;27.30;53.00
52743;DHT22;55583;53.012;6.556;2023-05-07T11:31:52;27.70;54.70
52743;DHT22;55583;53.012;6.556;2023-05-07T11:34:22;28.10;53.50
52743;DHT22;55583;53.012;6.556;2023-05-07T11:36:48;28.60;52.10
52743;DHT22;55583;53.012;6.556;2023-05-07T11:39:25;29.10;51.90
52743;DHT22;55583;53.012;6.556;2023-05-07T11:41:51;29.20;52.00
52743;DHT22;55583;53.012;6.556;2023-05-07T11:44:17;28.90;51.80
52743;DHT22;55583;53.012;6.556;2023-05-07T11:46:43;28.30;52.40
52743;DHT22;55583;53.012;6.556;2023-05-07T11:49:09;27.80;52.70
52743;DHT22;55583;53.012;6.556;2023-05-07T11:51:35;27.40;52.40
52743;DHT22;55583;53.012;6.556;2023-05-07T11:54:03;27.00;53.00
52743;DHT22;55583;53.012;6.556;2023-05-07T11:56:34;27.00;55.60
52743;DHT22;55583;53.012;6.556;2023-05-07T11:59:00;27.30;56.10
52743;DHT22;55583;53.012;6.556;2023-05-07T12:01:26;27.70;55.10
52743;DHT22;55583;53.012;6.556;2023-05-07T12:03:52;27.90;54.50
52743;DHT22;55583;53.012;6.556;2023-05-07T12:06:18;28.30;52.80
52743;DHT22;55583;53.012;6.556;2023-05-07T12:08:44;28.90;52.80
52743;DHT22;55583;53.012;6.556;2023-05-07T12:11:15;29.60;51.40
52743;DHT22;55583;53.012;6.556;2023-05-07T12:13:42;30.00;50.40
52743;DHT22;55583;53.012;6.556;2023-05-07T12:16:07;29.80;50.60
52743;DHT22;55583;53.012;6.556;2023-05-07T12:18:37;29.50;50.20
52743;DHT22;55583;53.012;6.556;2023-05-07T12:21:04;29.30;52.80
52743;DHT22;55583;53.012;6.556;2023-05-07T12:23:30;28.90;51.10
52743;DHT22;55583;53.012;6.556;2023-05-07T12:25:56;28.20;51.90
52743;DHT22;55583;53.012;6.556;2023-05-07T12:28:22;27.80;53.00
52743;DHT22;55583;53.012;6.556;2023-05-07T12:30:50;27.70;52.80
52743;DHT22;55583;53.012;6.556;2023-05-07T12:33:17;27.60;52.20
52743;DHT22;55583;53.012;6.556;2023-05-07T12:35:43;27.30;53.60
52743;DHT22;55583;53.012;6.556;2023-05-07T12:38:14;27.10;53.70
52743;DHT22;55583;53.012;6.556;2023-05-07T12:40:46;26.90;54.00
52743;DHT22;55583;53.012;6.556;2023-05-07T12:43:25;26.80;53.40
52743;DHT22;55583;53.012;6.556;2023-05-07T12:45:54;26.90;53.70
52743;DHT22;55583;53.012;6.556;2023-05-07T12:48:20;27.00;53.90
52743;DHT22;55583;53.012;6.556;2023-05-07T12:50:58;27.40;53.70
52743;DHT22;55583;53.012;6.556;2023-05-07T12:53:26;27.60;53.10
52743;DHT22;55583;53.012;6.556;2023-05-07T12:55:56;27.40;52.40
52743;DHT22;55583;53.012;6.556;2023-05-07T12:58:32;27.20;52.40
52743;DHT22;55583;53.012;6.556;2023-05-07T13:01:00;27.40;53.30
52743;DHT22;55583;53.012;6.556;2023-05-07T13:05:58;28.30;52.10
52743;DHT22;55583;53.012;6.556;2023-05-07T13:08:36;28.60;52.60
52743;DHT22;55583;53.012;6.556;2023-05-07T13:11:03;29.00;52.40
52743;DHT22;55583;53.012;6.556;2023-05-07T13:13:30;28.90;51.80
52743;DHT22;55583;53.012;6.556;2023-05-07T13:15:56;28.80;52.70
52743;DHT22;55583;53.012;6.556;2023-05-07T13:18:23;28.70;51.60
52743;DHT22;55583;53.012;6.556;2023-05-07T13:20:49;28.60;52.50
52743;DHT22;55583;53.012;6.556;2023-05-07T13:23:15;28.60;52.40
52743;DHT22;55583;53.012;6.556;2023-05-07T13:25:41;28.60;52.00
52743;DHT22;55583;53.012;6.556;2023-05-07T13:28:06;28.30;52.70
52743;DHT22;55583;53.012;6.556;2023-05-07T13:30:32;28.10;52.60
52743;DHT22;55583;53.012;6.556;2023-05-07T13:32:58;27.70;52.70
52743;DHT22;55583;53.012;6.556;2023-05-07T13:35:23;27.30;52.90
52743;DHT22;55583;53.012;6.556;2023-05-07T13:37:49;27.00;53.60
52743;DHT22;55583;53.012;6.556;2023-05-07T13:40:15;26.70;53.90
52743;DHT22;55583;53.012;6.556;2023-05-07T13:42:41;26.30;54.90
52743;DHT22;55583;53.012;6.556;2023-05-07T13:45:07;26.20;55.70
52743;DHT22;55583;53.012;6.556;2023-05-07T13:47:34;26.40;55.40
52743;DHT22;55583;53.012;6.556;2023-05-07T13:49:59;26.70;55.60
52743;DHT22;55583;53.012;6.556;2023-05-07T13:52:25;27.10;55.60
52743;DHT22;55583;53.012;6.556;2023-05-07T13:54:51;27.40;54.60
52743;DHT22;55583;53.012;6.556;2023-05-07T13:57:18;27.50;53.70
52743;DHT22;55583;53.012;6.556;2023-05-07T13:59:43;27.60;53.10
52743;DHT22;55583;53.012;6.556;2023-05-07T14:02:09;27.70;53.20
52743;DHT22;55583;53.012;6.556;2023-05-07T14:04:35;27.70;52.90
52743;DHT22;55583;53.012;6.556;2023-05-07T14:07:01;28.00;53.00
52743;DHT22;55583;53.012;6.556;2023-05-07T14:09:26;28.40;52.40
52743;DHT22;55583;53.012;6.556;2023-05-07T14:11:52;28.90;52.00
52743;DHT22;55583;53.012;6.556;2023-05-07T14:14:18;29.20;51.60
52743;DHT22;55583;53.012;6.556;2023-05-07T14:16:44;29.20;50.80
52743;DHT22;55583;53.012;6.556;2023-05-07T14:19:11;29.00;51.90
52743;DHT22;55583;53.012;6.556;2023-05-07T14:21:37;29.00;52.70
52743;DHT22;55583;53.012;6.556;2023-05-07T14:24:02;29.20;51.30
52743;DHT22;55583;53.012;6.556;2023-05-07T14:26:28;29.30;50.60
52743;DHT22;55583;53.012;6.556;2023-05-07T14:28:54;29.30;50.50
52743;DHT22;55583;53.012;6.556;2023-05-07T14:31:22;29.50;50.40
52743;DHT22;55583;53.012;6.556;2023-05-07T14:33:48;29.20;50.70
52743;DHT22;55583;53.012;6.556;2023-05-07T14:36:18;28.90;50.30
52743;DHT22;55583;53.012;6.556;2023-05-07T14:38:48;28.30;50.30
52743;DHT22;55583;53.012;6.556;2023-05-07T14:41:14;27.70;50.70
52743;DHT22;55583;53.012;6.556;2023-05-07T14:43:40;27.10;51.60
52743;DHT22;55583;53.012;6.556;2023-05-07T14:46:05;26.50;52.90
52743;DHT22;55583;53.012;6.556;2023-05-07T14:48:31;26.20;52.90
52743;DHT22;55583;53.012;6.556;2023-05-07T14:50:57;25.90;54.30
52743;DHT22;55583;53.012;6.556;2023-05-07T14:53:23;25.50;54.60
52743;DHT22;55583;53.012;6.556;2023-05-07T14:55:48;25.40;56.00
52743;DHT22;55583;53.012;6.556;2023-05-07T14:58:14;25.20;55.20
52743;DHT22;55583;53.012;6.556;2023-05-07T15:00:40;25.10;55.30
52743;DHT22;55583;53.012;6.556;2023-05-07T15:03:07;25.10;55.40
52743;DHT22;55583;53.012;6.556;2023-05-07T15:05:33;25.00;55.90
